createdAt,value
2023-01-30T00:03:48.183Z,25.13
2023-01-30T00:07:54.286Z,25.58
2023-01-30T00:11:57.302Z,24.33
2023-01-30T00:16:00.472Z,21.30
2023-01-30T00:20:03.985Z,23.73
2023-01-30T00:24:09.174Z,30.55
2023-01-30T00:28:12.511Z,21.13
2023-01-30T00:32:15.607Z,24.30
2023-01-30T00:36:19.025Z,24.13
2023-01-30T00:40:23.738Z,23.73
2023-01-30T00:44:44.049Z,20.45
2023-01-30T00:48:47.232Z,17.30
2023-01-30T00:52:50.571Z,22.75
2023-01-30T00:56:54.901Z,20.88
2023-01-30T01:00:58.131Z,20.85
2023-01-30T01:05:01.279Z,26.52
2023-01-30T01:09:04.846Z,20.23
2023-01-30T01:13:11.456Z,26.73
2023-01-30T01:17:14.661Z,32.35
2023-01-30T01:21:20.198Z,21.20
2023-01-30T01:25:24.738Z,22.70
2023-01-30T01:29:29.247Z,22.48
2023-01-30T01:33:32.423Z,20.67
2023-01-30T01:37:35.936Z,28.08
2023-01-30T01:41:38.848Z,18.10
2023-01-30T01:45:45.084Z,24.17
2023-01-30T01:49:48.180Z,21.23
2023-01-30T01:53:57.928Z,28.38
2023-01-30T01:58:05.747Z,27.20
2023-01-30T02:02:13.697Z,26.05
2023-01-30T02:06:18.440Z,23.02
2023-01-30T02:10:27.951Z,20.92
2023-01-30T02:14:32.637Z,23.75
2023-01-30T02:18:40.909Z,17.70
2023-01-30T02:23:17.380Z,23.50
2023-01-30T02:27:40.193Z,20.40
2023-01-30T02:31:51.522Z,21.45
2023-01-30T02:36:08.976Z,22.55
2023-01-30T02:40:19.423Z,18.70
2023-01-30T02:44:30.314Z,18.20
2023-01-30T02:48:40.005Z,26.98
2023-01-30T02:52:45.249Z,18.20
2023-01-30T02:56:52.622Z,24.10
2023-01-30T03:01:29.466Z,17.70
2023-01-30T03:05:46.212Z,25.38
2023-01-30T03:09:56.512Z,23.83
2023-01-30T03:14:11.016Z,32.50
2023-01-30T03:18:14.015Z,28.70
2023-01-30T03:22:18.686Z,24.13
2023-01-30T03:26:25.160Z,25.98
2023-01-30T03:30:28.395Z,25.73
2023-01-30T03:34:31.645Z,22.80
2023-01-30T03:38:37.925Z,22.08
2023-01-30T03:42:42.438Z,29.63
2023-01-30T03:46:45.763Z,21.17
2023-01-30T03:50:49.289Z,22.17
2023-01-30T03:54:54.784Z,27.77
2023-01-30T03:58:58.203Z,29.83
2023-01-30T04:03:01.382Z,20.85
2023-01-30T04:07:04.334Z,21.13
2023-01-30T04:11:08.912Z,24.58
2023-01-30T04:15:12.902Z,20.00
2023-01-30T04:19:16.310Z,26.85
2023-01-30T04:23:19.593Z,22.25
2023-01-30T04:27:24.245Z,22.25
2023-01-30T04:31:27.366Z,27.83
2023-01-30T04:35:30.548Z,27.48
2023-01-30T04:39:34.045Z,21.33
2023-01-30T04:43:38.673Z,28.20
2023-01-30T04:47:41.909Z,30.58
2023-01-30T04:51:45.248Z,21.77
2023-01-30T04:55:48.686Z,26.00
2023-01-30T04:59:53.243Z,25.05
2023-01-30T05:03:56.312Z,22.30
2023-01-30T05:07:59.673Z,31.35
2023-01-30T05:12:03.167Z,27.00
2023-01-30T05:26:56.371Z,21.65
2023-01-30T05:31:02.739Z,24.70
2023-01-30T05:35:06.936Z,27.38
2023-01-30T05:39:10.334Z,20.65
2023-01-30T05:43:18.024Z,30.15
2023-01-30T05:47:21.223Z,25.73
2023-01-30T05:51:26.219Z,23.00
2023-01-30T05:55:29.349Z,24.67
2023-01-30T05:59:33.633Z,22.60
2023-01-30T06:03:37.427Z,22.33
2023-01-30T06:07:41.033Z,18.65
2023-01-30T06:11:44.540Z,19.02
2023-01-30T06:15:49.206Z,21.73
2023-01-30T06:19:52.434Z,21.15
2023-01-30T06:23:55.799Z,16.02
2023-01-30T06:27:58.857Z,14.38
2023-01-30T06:32:03.678Z,19.58
2023-01-30T06:36:07.337Z,13.45
2023-01-30T06:40:12.700Z,18.50
2023-01-30T06:44:15.920Z,17.30
2023-01-30T06:48:21.195Z,15.20
2023-01-30T06:52:24.204Z,19.15
2023-01-30T06:56:27.938Z,11.30
2023-01-30T07:00:31.547Z,22.60
2023-01-30T07:04:36.397Z,23.33
2023-01-30T07:08:40.968Z,10.13
2023-01-30T07:12:44.484Z,17.65
2023-01-30T07:16:47.661Z,18.35
2023-01-30T07:20:52.509Z,17.50
2023-01-30T07:24:55.647Z,11.82
2023-01-30T07:28:58.851Z,16.00
2023-01-30T07:33:02.354Z,10.10
2023-01-30T07:37:06.882Z,8.52
2023-01-30T07:41:09.739Z,13.75
2023-01-30T07:45:13.671Z,13.10
2023-01-30T07:49:17.038Z,12.07
2023-01-30T07:53:21.767Z,12.40
2023-01-30T07:57:24.724Z,9.18
2023-01-30T08:01:28.237Z,11.25
2023-01-30T08:05:31.573Z,21.15
2023-01-30T08:09:36.111Z,9.10
2023-01-30T08:13:39.092Z,12.00
2023-01-30T08:17:42.035Z,13.30
2023-01-30T08:21:45.372Z,8.25
2023-01-30T08:25:49.860Z,10.27
2023-01-30T08:29:52.971Z,8.20
2023-01-30T08:33:56.003Z,12.05
2023-01-30T08:37:59.956Z,10.98
2023-01-30T08:42:04.939Z,9.80
2023-01-30T08:46:09.285Z,10.90
2023-01-30T08:50:13.230Z,5.88
2023-01-30T08:54:16.348Z,8.02
2023-01-30T08:58:21.423Z,7.90
2023-01-30T09:02:24.759Z,9.73
2023-01-30T09:06:28.230Z,6.90
2023-01-30T09:10:31.290Z,4.22
2023-01-30T09:14:36.136Z,9.73
2023-01-30T09:18:41.059Z,6.68
2023-01-30T09:22:44.042Z,5.40
2023-01-30T09:26:47.579Z,8.85
2023-01-30T09:30:52.175Z,6.53
2023-01-30T09:34:55.391Z,3.97
2023-01-30T09:38:58.751Z,6.10
2023-01-30T09:43:20.552Z,6.55
2023-01-30T09:47:36.506Z,10.82
2023-01-30T09:51:52.053Z,6.07
2023-01-30T09:55:58.970Z,7.82
2023-01-30T10:00:08.853Z,6.07
2023-01-30T10:04:21.114Z,3.60
2023-01-30T10:08:52.282Z,4.80
2023-01-30T10:13:07.744Z,3.47
2023-01-30T10:17:25.913Z,4.97
2023-01-30T10:21:42.357Z,5.45
2023-01-30T10:25:48.511Z,2.75
2023-01-30T10:29:57.808Z,4.88
2023-01-30T10:34:04.687Z,7.45
2023-01-30T10:38:17.834Z,4.47
2023-01-30T10:42:27.851Z,3.00
2023-01-30T10:46:49.253Z,5.40
2023-01-30T10:50:58.239Z,5.55
2023-01-30T10:55:22.132Z,7.25
2023-01-30T10:59:46.047Z,6.78
2023-01-30T11:03:54.440Z,2.88
2023-01-30T11:07:57.865Z,4.78
2023-01-30T11:12:02.337Z,3.90
2023-01-30T11:16:08.781Z,4.75
2023-01-30T11:20:16.972Z,9.95
2023-01-30T11:24:22.412Z,6.90
2023-01-30T11:28:28.290Z,4.30
2023-01-30T11:32:31.769Z,4.35
2023-01-30T11:36:37.008Z,7.75
2023-01-30T11:40:41.772Z,4.20
2023-01-30T11:44:46.082Z,2.58
2023-01-30T11:49:02.320Z,4.65
2023-01-30T11:53:31.259Z,5.57
2023-01-30T11:57:43.627Z,4.13
2023-01-30T12:01:48.726Z,1.48
2023-01-30T12:05:52.042Z,1.48
2023-01-30T12:09:56.227Z,3.58
2023-01-30T12:14:10.726Z,2.33
2023-01-30T12:18:23.859Z,1.42
2023-01-30T12:22:33.030Z,1.65
2023-01-30T12:26:42.444Z,2.83
2023-01-30T12:30:51.012Z,5.05
2023-01-30T12:34:56.449Z,4.57
2023-01-30T12:39:14.684Z,2.83
2023-01-30T12:43:41.043Z,2.13
2023-01-30T12:47:59.612Z,2.33
2023-01-30T12:52:30.674Z,3.65
2023-01-30T12:56:59.164Z,2.65
2023-01-30T13:01:18.173Z,3.55
2023-01-30T13:05:36.936Z,3.17
2023-01-30T13:09:51.020Z,4.50
2023-01-30T13:14:00.741Z,3.50
2023-01-30T13:18:15.194Z,2.88
2023-01-30T13:22:24.121Z,2.58
2023-01-30T13:26:35.255Z,2.38
2023-01-30T13:30:40.487Z,3.22
2023-01-30T13:34:46.582Z,4.18
2023-01-30T13:39:00.121Z,2.92
2023-01-30T13:43:11.692Z,3.88
2023-01-30T13:47:28.507Z,2.90
2023-01-30T13:51:44.547Z,4.03
2023-01-30T13:55:50.819Z,4.60
2023-01-30T14:00:18.712Z,5.32
2023-01-30T14:04:45.350Z,3.72
2023-01-30T14:08:55.550Z,2.83
2023-01-30T14:13:07.395Z,5.43
2023-01-30T14:17:17.252Z,9.33
2023-01-30T14:21:24.816Z,8.10
2023-01-30T14:25:45.845Z,4.15
2023-01-30T14:29:55.757Z,3.95
2023-01-30T14:34:00.121Z,6.00
2023-01-30T14:38:13.357Z,13.80
2023-01-30T14:42:24.559Z,4.78
2023-01-30T14:46:56.906Z,4.50
2023-01-30T14:51:37.139Z,6.40
2023-01-30T14:55:40.616Z,4.60
2023-01-30T15:00:02.777Z,4.63
2023-01-30T15:04:17.707Z,6.18
2023-01-30T15:08:25.621Z,6.35
2023-01-30T15:12:59.386Z,5.13
2023-01-30T15:17:19.714Z,2.30
2023-01-30T15:21:59.042Z,6.05
2023-01-30T15:26:25.423Z,7.32
2023-01-30T15:30:44.956Z,4.82
2023-01-30T15:34:53.410Z,3.95
2023-01-30T15:39:01.823Z,5.18
2023-01-30T15:43:25.142Z,6.35
2023-01-30T15:47:46.091Z,4.97
2023-01-30T15:51:49.302Z,7.53
2023-01-30T15:55:53.745Z,3.47
2023-01-30T15:59:59.309Z,3.33
2023-01-30T16:04:08.392Z,3.25
2023-01-30T16:08:21.052Z,3.97
2023-01-30T16:16:30.461Z,3.63
2023-01-30T16:20:36.227Z,11.13
2023-01-30T16:24:40.069Z,9.30
2023-01-30T16:28:43.748Z,8.02
2023-01-30T16:32:49.194Z,10.38
2023-01-30T16:36:52.314Z,8.50
2023-01-30T16:40:56.006Z,6.22
2023-01-30T16:45:36.996Z,12.13
2023-01-30T16:49:46.693Z,6.60
2023-01-30T16:53:54.654Z,6.20
2023-01-30T16:58:00.952Z,7.47
2023-01-30T17:02:06.480Z,5.32
2023-01-30T17:06:21.447Z,7.60
2023-01-30T17:10:53.595Z,12.18
2023-01-30T17:15:28.027Z,8.63
2023-01-30T17:19:31.865Z,7.97
2023-01-30T17:23:36.479Z,5.93
2023-01-30T17:27:39.703Z,7.20
2023-01-30T17:31:49.090Z,5.25
2023-01-30T17:35:52.090Z,13.77
2023-01-30T17:39:56.900Z,4.75
2023-01-30T17:44:00.406Z,6.00
2023-01-30T17:48:03.277Z,6.35
2023-01-30T17:52:07.394Z,5.38
2023-01-30T17:56:20.969Z,13.95
2023-01-30T18:00:25.701Z,8.70
2023-01-30T18:04:28.678Z,6.10
2023-01-30T18:08:32.182Z,7.03
2023-01-30T18:12:36.569Z,5.75
2023-01-30T18:16:40.182Z,9.10
2023-01-30T18:20:43.302Z,5.32
2023-01-30T18:24:46.353Z,5.55
2023-01-30T18:28:53.229Z,7.10
2023-01-30T18:32:56.784Z,4.70
2023-01-30T18:36:59.827Z,6.60
2023-01-30T18:41:08.415Z,7.43
2023-01-30T18:45:13.704Z,7.32
2023-01-30T18:49:16.598Z,4.45
2023-01-30T18:53:19.930Z,7.47
2023-01-30T18:57:23.089Z,4.28
2023-01-30T19:01:29.799Z,7.45
2023-01-30T19:05:33.363Z,7.35
2023-01-30T19:09:36.794Z,5.63
2023-01-30T19:13:39.658Z,6.97
2023-01-30T19:17:44.418Z,4.60
2023-01-30T19:21:47.803Z,14.90
2023-01-30T19:25:55.211Z,4.07
2023-01-30T19:29:58.893Z,5.72
2023-01-30T19:34:05.108Z,9.65
2023-01-30T19:38:08.006Z,5.53
2023-01-30T19:42:11.450Z,4.40
2023-01-30T19:46:15.374Z,10.00
2023-01-30T19:50:20.743Z,4.57
2023-01-30T19:54:24.159Z,8.65
2023-01-30T19:58:27.421Z,5.28
2023-01-30T20:02:31.276Z,10.13
2023-01-30T20:06:37.587Z,5.38
2023-01-30T20:10:44.028Z,8.18
2023-01-30T20:14:47.915Z,7.55
2023-01-30T20:18:56.467Z,6.93
2023-01-30T20:23:02.923Z,9.48
2023-01-30T20:27:06.845Z,6.43
2023-01-30T20:31:12.744Z,8.35
2023-01-30T20:35:16.162Z,4.18
2023-01-30T20:39:22.209Z,5.07
2023-01-30T20:43:25.845Z,8.95
2023-01-30T20:47:29.344Z,5.03
2023-01-30T20:51:34.970Z,8.18
2023-01-30T20:55:39.785Z,8.77
2023-01-30T20:59:43.226Z,11.35
2023-01-30T21:03:50.564Z,5.82
2023-01-30T21:07:53.879Z,6.60
2023-01-30T21:11:58.543Z,6.53
2023-01-30T21:16:04.042Z,10.40
2023-01-30T21:20:07.617Z,10.85
2023-01-30T21:24:14.169Z,9.10
2023-01-30T21:28:18.480Z,4.90
2023-01-30T21:32:21.494Z,9.90
2023-01-30T21:36:24.972Z,5.38
2023-01-30T21:40:45.511Z,7.30
2023-01-30T21:44:50.031Z,5.88
2023-01-30T21:48:54.009Z,5.82
2023-01-30T21:52:57.743Z,8.95
2023-01-30T21:57:00.899Z,4.75
2023-01-30T22:01:07.458Z,5.53
2023-01-30T22:05:11.775Z,7.60
2023-01-30T22:09:16.619Z,4.85
2023-01-30T22:13:19.962Z,5.05
2023-01-30T22:17:26.527Z,3.65
2023-01-30T22:21:32.752Z,9.43
2023-01-30T22:25:36.260Z,6.60
2023-01-30T22:29:39.688Z,10.13
2023-01-30T22:33:47.185Z,11.73
2023-01-30T22:37:50.673Z,9.27
2023-01-30T22:41:53.821Z,6.45
2023-01-30T22:46:00.986Z,6.30
2023-01-30T22:50:07.042Z,12.75
2023-01-30T22:54:16.539Z,3.55
2023-01-30T22:58:19.695Z,10.20
2023-01-30T23:02:23.042Z,10.23
2023-01-30T23:06:30.247Z,6.72
2023-01-30T23:10:33.405Z,7.38
2023-01-30T23:14:37.122Z,5.07
2023-01-30T23:18:59.918Z,6.50
2023-01-30T23:27:13.171Z,7.18
2023-01-30T23:31:18.755Z,4.10
2023-01-30T23:35:22.291Z,6.15
2023-01-30T23:39:26.966Z,10.38
2023-01-30T23:43:31.423Z,4.03
2023-01-30T23:47:34.365Z,8.98
2023-01-30T23:51:39.107Z,9.38
2023-01-30T23:55:51.850Z,7.93
